Weerspreuk van de dag: oveel nevel in maart, zoveel onweer s' zomers.
Het weer levert geen direct gevaar op.    Er zijn geen waarschuwingen afgegeven.


Onweer radar Meer informatie blitzortung!


Regen radar Meer informatie rain snow radar


Bekijk deze sites ook eens:

FPL Automotive (TIP)

Autostekkers.nl (TIP)

Over Luyksgestel

De Kempen, mijn omgeving

BOL.com

Weerstation Noordbergum

Inktweb

Weerstation Hapert

Parfumswinkel TIP

Weerstation Hoogeloon

Weerstation Son&Breugel

Weerstation Castaert

Smartphonehoesjes

Weerstation Tilburg Reeshof

Weerstation Scheulder

Weerverwachting Samos

Samos actueel

Weerwoord (forum)

Griekenlandforum

Vakantie naar Samos

Winterzon

Canon

Lampen koopjeshoek

Wolven in Nederland



METAR rapporten vliegvelden

   
EBAW - Antwerp
Gewijzigd: 24-03-2019 23:50
Helder  
Helder  
   Wind: Westen 14.8 km/h
Wind: Westen 14.8 km/h
Temperatuur: 7°C
Voelt als: 4°C
Dauwpunt: 0°C
Vochtigheid: 61%
Barometer: 1025 hPa
Zicht: meer dan 10 km
Bewolking: Helder
EBAW 242250Z AUTO 26008KT CAVOK 07/00 Q1025
EBLG - Liège
Gewijzigd: 24-03-2019 23:50
Licht bewolkt  
Licht bewolkt  
   Wind: WZW 7.4 km/h
Wind: WZW 7.4 km/h
Temperatuur: 3°C
Voelt als: 1°C
Dauwpunt: 0°C
Vochtigheid: 81%
Barometer: 1025 hPa
Bewolking: Licht bewolkt
Zicht: meer dan 10 km
Bewolking: Licht bewolkt 4200 ft
EBLG 242250Z 25004KT 9999 FEW042 03/M00 Q1025 NOSIG
EBCV - Mons/Bergen
Gewijzigd: 24-03-2019 23:55
Grotendeels bewolkt  
Grotendeels bewolkt  
   Wind: WZW 9.3 km/h
Wind: WZW 9.3 km/h
Temperatuur: 5°C
Voelt als: 3°C
Dauwpunt: 1°C
Vochtigheid: 76%
Barometer: 1027 hPa
Bewolking: Grotendeels bewolkt
Zicht: meer dan 10 km
Bewolking: Grotendeels bewolkt 4600 ft
EBCV 242255Z AUTO 24005KT 9999 BKN046/// 05/01 Q1027 BLU
EHBK - Maastricht
Gewijzigd: 24-03-2019 23:55
Helder  
Helder  
   Wind: ZW 7.4 km/h
Wind: ZW 7.4 km/h
Temperatuur: 3°C
Voelt als: 1°C
Dauwpunt: 0°C
Vochtigheid: 81%
Barometer: 1025 hPa
Bewolking: Helder
Zicht: meer dan 10 km
Bewolking: Helder
EHBK 242255Z AUTO 22004KT 9999 NCD 03/M00 Q1025
ELLX - Luxemburg
Gewijzigd: 24-03-2019 23:50
Helder  
Helder  
   Wind: NNW 11.1 km/h
Wind: NNW 11.1 km/h
Temperatuur: 4°C
Voelt als: 1°C
Dauwpunt: -2°C
Vochtigheid: 65%
Barometer: 1024 hPa
Bewolking: Helder
Zicht: meer dan 10 km
Bewolking: Helder
ELLX 242250Z AUTO 33006KT 300V360 9999 NCD 04/M02 Q1024 NOSIG
EBOS - Oostende
Gewijzigd: 24-03-2019 23:50
Helder  
Helder  
   Wind: WNW 18.5 km/h
Wind: WNW 18.5 km/h
Temperatuur: 8°C
Voelt als: 5°C
Dauwpunt: 2°C
Vochtigheid: 66%
Barometer: 1026 hPa
Zicht: meer dan 10 km
Bewolking: Helder
EBOS 242250Z 29010KT CAVOK 08/02 Q1026 NOSIG

Script ontwikkeld door  Saratoga-weather.org Aangepast voor de template door  Weerstation Leuven

U vindt ons ook hier:

Het Weer Aktueel

UK Metoffice

European Weather Network

Weather Underground

AWEKAS



Lekker winkelen zonder zorgen - Gratis verzending en retour